createdAt,value
2022-10-09T00:00:49.762Z,142.47
2022-10-09T00:03:19.173Z,142.93
2022-10-09T00:05:48.300Z,142.90
2022-10-09T00:08:16.068Z,141.07
2022-10-09T00:10:44.446Z,142.63
2022-10-09T00:13:12.542Z,142.63
2022-10-09T00:15:40.927Z,143.13
2022-10-09T00:18:08.778Z,142.60
2022-10-09T00:20:38.042Z,142.43
2022-10-09T00:23:07.253Z,142.83
2022-10-09T00:25:36.330Z,142.67
2022-10-09T00:28:05.445Z,142.50
2022-10-09T00:30:33.620Z,142.97
2022-10-09T00:33:01.379Z,142.20
2022-10-09T00:35:29.186Z,143.03
2022-10-09T00:37:56.974Z,142.67
2022-10-09T00:40:26.595Z,142.50
2022-10-09T00:42:57.213Z,142.23
2022-10-09T00:45:25.487Z,142.83
2022-10-09T00:47:56.907Z,142.83
2022-10-09T00:50:29.084Z,142.87
2022-10-09T00:53:00.027Z,142.63
2022-10-09T00:55:29.835Z,142.80
2022-10-09T00:58:00.083Z,142.00
2022-10-09T01:00:28.320Z,142.53
2022-10-09T01:02:56.251Z,142.80
2022-10-09T01:05:29.742Z,142.23
2022-10-09T01:08:02.380Z,142.73
2022-10-09T01:10:39.657Z,142.33
2022-10-09T01:13:13.151Z,142.63
2022-10-09T01:15:49.017Z,143.23
2022-10-09T01:18:23.915Z,143.00
2022-10-09T01:20:56.487Z,142.87
2022-10-09T01:23:43.920Z,141.80
2022-10-09T01:26:33.573Z,142.83
2022-10-09T01:29:06.681Z,142.20
2022-10-09T01:31:39.291Z,141.60
2022-10-09T01:34:08.669Z,142.87
2022-10-09T01:36:37.887Z,142.73
2022-10-09T01:39:07.405Z,142.20
2022-10-09T01:41:35.670Z,142.00
2022-10-09T01:44:04.897Z,142.13
2022-10-09T01:46:33.983Z,141.90
2022-10-09T01:49:13.248Z,142.17
2022-10-09T01:51:51.077Z,141.90
2022-10-09T01:54:22.549Z,142.10
2022-10-09T01:56:52.119Z,142.17
2022-10-09T01:59:21.432Z,142.27
2022-10-09T02:01:50.737Z,142.10
2022-10-09T02:04:20.023Z,142.77
2022-10-09T02:06:48.611Z,141.87
2022-10-09T02:09:18.744Z,142.00
2022-10-09T02:11:52.383Z,142.17
2022-10-09T02:14:21.573Z,142.00
2022-10-09T02:16:53.670Z,141.70
2022-10-09T02:19:26.013Z,141.37
2022-10-09T02:21:57.624Z,142.00
2022-10-09T02:24:26.442Z,142.37
2022-10-09T02:26:57.304Z,142.63
2022-10-09T02:29:26.809Z,141.07
2022-10-09T02:31:54.626Z,142.27
2022-10-09T02:34:22.639Z,142.83
2022-10-09T02:36:50.872Z,152.83
2022-10-09T02:39:18.780Z,150.53
2022-10-09T02:41:46.580Z,149.13
2022-10-09T02:44:14.385Z,148.73
2022-10-09T02:46:43.629Z,148.67
2022-10-09T02:49:12.059Z,148.47
2022-10-09T02:51:39.875Z,147.90
2022-10-09T02:54:07.801Z,147.63
2022-10-09T02:56:38.996Z,147.70
2022-10-09T02:59:07.292Z,147.67
2022-10-09T03:01:35.292Z,146.90
2022-10-09T03:04:04.771Z,146.80
2022-10-09T03:06:32.999Z,147.47
2022-10-09T03:09:00.808Z,146.60
2022-10-09T03:11:28.693Z,146.50
2022-10-09T03:13:56.599Z,146.77
2022-10-09T03:16:25.988Z,147.20
2022-10-09T03:18:54.724Z,146.40
2022-10-09T03:21:25.388Z,146.43
2022-10-09T03:23:53.588Z,146.43
2022-10-09T03:26:24.579Z,146.40
2022-10-09T03:28:53.940Z,146.70
2022-10-09T03:31:50.448Z,146.57
2022-10-09T03:34:12.605Z,146.33
2022-10-09T03:36:42.172Z,146.93
2022-10-09T03:39:10.083Z,146.67
2022-10-09T03:41:37.872Z,146.70
2022-10-09T03:44:05.774Z,146.60
2022-10-09T03:46:35.377Z,146.37
2022-10-09T03:49:03.147Z,146.33
2022-10-09T03:51:30.931Z,146.37
2022-10-09T03:54:00.056Z,146.40
2022-10-09T03:56:27.864Z,145.97
2022-10-09T03:58:55.694Z,146.80
2022-10-09T04:01:23.595Z,147.10
2022-10-09T04:03:51.420Z,146.60
2022-10-09T04:06:19.187Z,146.00
2022-10-09T04:08:46.961Z,146.77
2022-10-09T04:11:16.095Z,145.83
2022-10-09T04:13:43.872Z,145.93
2022-10-09T04:16:12.700Z,146.20
2022-10-09T04:18:40.710Z,145.80
2022-10-09T04:21:08.923Z,146.23
2022-10-09T04:23:36.722Z,146.10
2022-10-09T04:26:04.505Z,146.50
2022-10-09T04:28:34.202Z,146.23
2022-10-09T04:31:02.319Z,146.73
2022-10-09T04:33:30.130Z,147.23
2022-10-09T04:35:58.526Z,146.47
2022-10-09T04:38:26.501Z,145.60
2022-10-09T04:40:58.122Z,146.37
2022-10-09T04:43:26.288Z,146.03
2022-10-09T04:45:55.744Z,145.93
2022-10-09T04:48:23.615Z,146.30
2022-10-09T04:50:51.439Z,146.37
2022-10-09T04:53:19.243Z,146.07
2022-10-09T04:55:47.255Z,145.87
2022-10-09T04:58:15.072Z,145.70
2022-10-09T05:00:43.950Z,146.67
2022-10-09T05:03:14.104Z,145.87
2022-10-09T05:05:41.954Z,145.93
2022-10-09T05:08:09.878Z,145.83
2022-10-09T05:10:37.896Z,146.33
2022-10-09T05:13:05.686Z,146.83
2022-10-09T05:15:36.648Z,146.77
2022-10-09T05:18:04.856Z,146.47
2022-10-09T05:20:33.989Z,146.07
2022-10-09T05:23:02.223Z,146.03
2022-10-09T05:25:30.007Z,145.70
2022-10-09T05:27:57.775Z,146.27
2022-10-09T05:30:25.543Z,144.50
2022-10-09T05:32:53.328Z,143.97
2022-10-09T05:35:21.099Z,143.80
2022-10-09T05:37:50.245Z,142.93
2022-10-09T05:40:18.037Z,143.00
2022-10-09T05:42:45.900Z,143.03
2022-10-09T05:45:13.911Z,140.13
2022-10-09T05:47:41.663Z,140.47
2022-10-09T05:50:10.281Z,139.80
2022-10-09T05:52:39.871Z,139.43
2022-10-09T05:55:09.521Z,140.37
2022-10-09T05:57:37.262Z,139.53
2022-10-09T06:00:05.932Z,139.43
2022-10-09T06:02:40.130Z,139.23
2022-10-09T06:05:08.575Z,139.50
2022-10-09T06:07:36.344Z,138.40
2022-10-09T06:10:04.486Z,138.90
2022-10-09T06:12:33.616Z,138.83
2022-10-09T06:15:01.471Z,138.77
2022-10-09T06:17:29.239Z,138.27
2022-10-09T06:19:57.082Z,138.30
2022-10-09T06:22:25.013Z,137.83
2022-10-09T06:24:52.783Z,138.20
2022-10-09T06:27:20.582Z,137.80
2022-10-09T06:29:49.693Z,137.43
2022-10-09T06:32:17.468Z,137.60
2022-10-09T06:34:45.236Z,136.97
2022-10-09T06:37:13.025Z,138.07
2022-10-09T06:39:40.782Z,137.73
2022-10-09T06:42:08.623Z,137.23
2022-10-09T06:44:54.642Z,137.87
2022-10-09T06:47:22.410Z,137.73
2022-10-09T06:49:50.160Z,137.90
2022-10-09T06:52:17.936Z,137.70
2022-10-09T06:54:45.732Z,137.93
2022-10-09T06:57:13.520Z,137.70
2022-10-09T06:59:41.284Z,137.57
2022-10-09T07:02:11.001Z,137.67
2022-10-09T07:04:38.829Z,137.90
2022-10-09T07:07:06.624Z,137.50
2022-10-09T07:09:34.558Z,137.23
2022-10-09T07:12:02.328Z,137.40
2022-10-09T07:14:30.714Z,137.20
2022-10-09T07:16:58.500Z,137.97
2022-10-09T07:19:27.622Z,137.13
2022-10-09T07:21:55.419Z,137.77
2022-10-09T07:24:25.266Z,137.37
2022-10-09T07:26:55.259Z,138.67
2022-10-09T07:29:23.105Z,139.50
2022-10-09T07:31:50.870Z,139.17
2022-10-09T07:34:18.643Z,139.27
2022-10-09T07:36:47.807Z,140.13
2022-10-09T07:39:15.701Z,140.60
2022-10-09T07:41:44.014Z,141.93
2022-10-09T07:44:12.191Z,142.63
2022-10-09T07:46:40.096Z,142.57
2022-10-09T07:49:07.914Z,143.07
2022-10-09T07:51:35.742Z,143.37
2022-10-09T07:54:05.122Z,142.57
2022-10-09T07:56:35.274Z,143.47
2022-10-09T07:59:06.190Z,143.00
2022-10-09T08:01:35.585Z,142.57
2022-10-09T08:04:04.483Z,142.50
2022-10-09T08:06:33.102Z,143.40
2022-10-09T08:09:02.371Z,143.90
2022-10-09T08:11:31.756Z,143.90
2022-10-09T08:13:59.906Z,145.13
2022-10-09T08:16:29.073Z,145.10
2022-10-09T08:18:58.591Z,145.53
2022-10-09T08:21:28.830Z,145.00
2022-10-09T08:23:58.139Z,145.80
2022-10-09T08:26:27.612Z,145.20
2022-10-09T08:28:58.543Z,145.00
2022-10-09T08:31:27.465Z,145.67
2022-10-09T08:33:55.866Z,145.23
2022-10-09T08:36:24.661Z,145.27
2022-10-09T08:38:53.103Z,145.27
2022-10-09T08:41:38.344Z,144.83
2022-10-09T08:44:14.670Z,144.47
2022-10-09T08:46:52.483Z,145.40
2022-10-09T08:49:27.802Z,145.00
2022-10-09T08:51:59.156Z,145.07
2022-10-09T08:54:33.981Z,145.33
2022-10-09T08:57:04.386Z,145.23
2022-10-09T08:59:33.587Z,145.40
2022-10-09T09:02:15.822Z,144.67
2022-10-09T09:04:54.939Z,145.53
2022-10-09T09:07:30.792Z,144.67
2022-10-09T09:10:06.415Z,144.80
2022-10-09T09:12:44.738Z,145.10
2022-10-09T09:15:29.548Z,145.03
2022-10-09T09:18:12.724Z,144.50
2022-10-09T09:20:48.076Z,144.97
2022-10-09T09:23:17.461Z,144.33
2022-10-09T09:25:46.649Z,144.87
2022-10-09T09:28:19.269Z,144.00
2022-10-09T09:30:51.845Z,144.47
2022-10-09T09:33:26.365Z,144.03
2022-10-09T09:36:03.194Z,144.27
2022-10-09T09:38:30.970Z,144.80
2022-10-09T09:40:59.145Z,144.10
2022-10-09T09:43:27.703Z,144.43
2022-10-09T09:45:58.250Z,144.50
2022-10-09T09:48:35.332Z,144.77
2022-10-09T09:51:26.945Z,144.57
2022-10-09T09:53:55.420Z,144.40
2022-10-09T09:56:47.725Z,144.60
2022-10-09T09:59:32.030Z,144.20
2022-10-09T10:02:13.032Z,144.23
2022-10-09T10:04:51.095Z,144.70
2022-10-09T10:07:29.528Z,144.80
2022-10-09T10:10:08.155Z,144.43
2022-10-09T10:12:41.484Z,144.27
2022-10-09T10:15:18.464Z,144.57
2022-10-09T10:17:49.353Z,145.13
2022-10-09T10:20:17.921Z,145.00
2022-10-09T10:22:52.142Z,144.47
2022-10-09T10:25:22.838Z,144.93
2022-10-09T10:27:53.174Z,144.83
2022-10-09T10:30:21.198Z,144.87
2022-10-09T10:32:56.655Z,144.43
2022-10-09T10:35:28.279Z,144.83
2022-10-09T10:38:05.379Z,144.73
2022-10-09T10:40:36.463Z,144.70
2022-10-09T10:43:15.717Z,145.13
2022-10-09T10:45:53.630Z,144.80
2022-10-09T10:48:26.580Z,145.40
2022-10-09T10:51:02.853Z,144.70
2022-10-09T10:53:45.127Z,145.00
2022-10-09T10:56:21.129Z,144.80
2022-10-09T10:58:55.846Z,145.03
2022-10-09T11:01:37.579Z,145.30
2022-10-09T11:04:30.859Z,144.63
2022-10-09T11:07:09.006Z,145.17
2022-10-09T11:09:47.111Z,144.97
2022-10-09T11:12:43.408Z,145.30
2022-10-09T11:15:16.911Z,145.23
2022-10-09T11:17:55.186Z,144.50
2022-10-09T11:20:52.001Z,144.77
2022-10-09T11:23:27.838Z,144.10
2022-10-09T11:26:05.078Z,144.50
2022-10-09T11:28:41.261Z,144.83
2022-10-09T11:31:14.579Z,144.30
2022-10-09T11:33:45.552Z,144.67
2022-10-09T11:36:20.752Z,145.07
2022-10-09T11:38:53.599Z,145.17
2022-10-09T11:41:21.814Z,145.03
2022-10-09T11:43:58.077Z,144.63
2022-10-09T11:46:35.683Z,144.40
2022-10-09T11:49:10.316Z,144.93
2022-10-09T11:51:45.420Z,144.80
2022-10-09T11:54:17.121Z,144.97
2022-10-09T11:56:54.636Z,144.47
2022-10-09T11:59:25.935Z,144.17
2022-10-09T12:01:53.800Z,144.70
2022-10-09T12:04:43.549Z,144.90
2022-10-09T12:07:14.391Z,144.37
2022-10-09T12:09:44.513Z,144.87
2022-10-09T12:12:23.828Z,144.40
2022-10-09T12:14:53.107Z,144.23
2022-10-09T12:17:34.882Z,144.37
2022-10-09T12:20:06.618Z,144.17
2022-10-09T12:22:41.363Z,144.73
2022-10-09T12:25:17.838Z,144.80
2022-10-09T12:27:47.138Z,144.90
2022-10-09T12:30:21.945Z,144.33
2022-10-09T12:32:55.944Z,145.07
2022-10-09T12:35:28.764Z,144.43
2022-10-09T12:37:58.017Z,144.60
2022-10-09T12:40:28.979Z,144.43
2022-10-09T12:42:58.388Z,144.40
2022-10-09T12:45:29.396Z,144.37
2022-10-09T12:48:01.072Z,144.57
2022-10-09T12:50:33.003Z,144.70
2022-10-09T12:53:05.838Z,144.57
2022-10-09T12:55:35.677Z,144.07
2022-10-09T12:58:05.811Z,144.40
2022-10-09T13:00:34.929Z,144.43
2022-10-09T13:03:03.155Z,144.07
2022-10-09T13:05:41.863Z,144.07
2022-10-09T13:08:25.779Z,144.17
2022-10-09T13:10:53.924Z,143.93
2022-10-09T13:13:26.798Z,144.47
2022-10-09T13:16:02.863Z,144.53
2022-10-09T13:18:30.984Z,144.27
2022-10-09T13:21:01.073Z,144.57
2022-10-09T13:23:33.103Z,144.40
2022-10-09T13:26:03.609Z,145.17
2022-10-09T13:28:32.654Z,144.70
2022-10-09T13:31:08.012Z,144.43
2022-10-09T13:33:36.042Z,143.90
2022-10-09T13:36:03.967Z,144.57
2022-10-09T13:38:35.111Z,144.70
2022-10-09T13:41:03.692Z,143.83
2022-10-09T13:43:31.647Z,144.13
2022-10-09T13:45:59.678Z,145.07
2022-10-09T13:48:29.336Z,144.93
2022-10-09T13:50:59.027Z,145.17
2022-10-09T13:53:27.265Z,144.70
2022-10-09T13:56:00.769Z,145.03
2022-10-09T13:58:29.287Z,144.33
2022-10-09T14:00:58.012Z,144.23
2022-10-09T14:03:25.796Z,144.87
2022-10-09T14:05:59.198Z,144.43
2022-10-09T14:08:27.355Z,144.67
2022-10-09T14:11:00.375Z,144.10
2022-10-09T14:13:28.548Z,144.37
2022-10-09T14:15:56.783Z,144.47
2022-10-09T14:18:24.704Z,144.47
2022-10-09T14:20:52.499Z,144.87
2022-10-09T14:23:20.261Z,144.77
2022-10-09T14:25:48.044Z,144.20
2022-10-09T14:28:17.353Z,145.23
2022-10-09T14:30:45.220Z,144.63
2022-10-09T14:33:13.384Z,144.87
2022-10-09T14:35:41.224Z,144.03
2022-10-09T14:38:09.084Z,144.83
2022-10-09T14:40:41.835Z,144.67
2022-10-09T14:43:09.671Z,144.40
2022-10-09T14:45:39.103Z,144.73
2022-10-09T14:48:06.956Z,144.40
2022-10-09T14:50:37.247Z,145.00
2022-10-09T14:53:05.064Z,145.03
2022-10-09T14:55:35.240Z,144.43
2022-10-09T14:58:03.032Z,144.63
2022-10-09T15:00:30.815Z,144.27
2022-10-09T15:02:59.977Z,144.63
2022-10-09T15:05:27.751Z,144.83
2022-10-09T15:07:55.511Z,144.20
2022-10-09T15:10:23.269Z,145.37
2022-10-09T15:12:51.062Z,144.20
2022-10-09T15:15:18.806Z,144.50
2022-10-09T15:17:46.725Z,144.63
2022-10-09T15:20:16.190Z,144.23
2022-10-09T15:22:44.921Z,145.10
2022-10-09T15:25:12.697Z,145.10
2022-10-09T15:27:40.500Z,144.63
2022-10-09T15:30:09.656Z,144.43
2022-10-09T15:32:37.454Z,145.07
2022-10-09T15:35:05.849Z,145.07
2022-10-09T15:37:35.062Z,144.57
2022-10-09T15:40:02.945Z,144.63
2022-10-09T15:42:31.156Z,144.50
2022-10-09T15:44:58.896Z,144.87
2022-10-09T15:47:49.521Z,144.73
2022-10-09T15:50:14.441Z,144.17
2022-10-09T15:52:43.549Z,143.93
2022-10-09T15:55:11.304Z,145.07
2022-10-09T15:57:39.099Z,144.13
2022-10-09T16:00:08.312Z,144.47
2022-10-09T16:02:36.553Z,143.93
2022-10-09T16:05:05.108Z,145.10
2022-10-09T16:07:32.911Z,144.53
2022-10-09T16:10:02.056Z,143.97
2022-10-09T16:12:29.832Z,144.27
2022-10-09T16:14:57.585Z,144.17
2022-10-09T16:17:25.371Z,144.13
2022-10-09T16:19:53.143Z,144.13
2022-10-09T16:22:20.912Z,144.20
2022-10-09T16:24:48.702Z,143.80
2022-10-09T16:27:17.852Z,144.37
2022-10-09T16:29:45.792Z,144.10
2022-10-09T16:32:13.559Z,144.57
2022-10-09T16:34:41.335Z,144.03
2022-10-09T16:37:09.149Z,144.47
2022-10-09T16:39:37.208Z,144.10
2022-10-09T16:42:05.115Z,144.17
2022-10-09T16:44:34.251Z,144.43
2022-10-09T16:47:02.031Z,143.80
2022-10-09T16:49:29.811Z,143.73
2022-10-09T16:51:57.598Z,144.30
2022-10-09T16:54:25.360Z,143.13
2022-10-09T16:56:53.175Z,143.97
2022-10-09T16:59:20.937Z,144.57
2022-10-09T17:01:50.107Z,144.17
2022-10-09T17:04:17.903Z,144.27
2022-10-09T17:06:46.390Z,143.90
2022-10-09T17:09:14.653Z,143.30
2022-10-09T17:11:43.935Z,144.33
2022-10-09T17:14:11.774Z,143.63
2022-10-09T17:16:41.872Z,143.87
2022-10-09T17:19:11.088Z,143.07
2022-10-09T17:21:38.881Z,143.03
2022-10-09T17:24:07.515Z,144.00
2022-10-09T17:26:35.708Z,143.53
2022-10-09T17:29:04.550Z,143.43
2022-10-09T17:31:32.795Z,144.23
2022-10-09T17:34:02.800Z,143.97
2022-10-09T17:36:33.851Z,143.73
2022-10-09T17:39:01.684Z,143.73
2022-10-09T17:41:30.051Z,144.03
2022-10-09T17:43:58.390Z,143.87
2022-10-09T17:46:28.692Z,143.80
2022-10-09T17:48:56.987Z,143.20
2022-10-09T17:51:26.622Z,144.40
2022-10-09T17:56:32.151Z,143.43
2022-10-09T17:59:00.828Z,143.37
2022-10-09T18:01:29.072Z,144.13
2022-10-09T18:03:57.395Z,143.83
2022-10-09T18:06:25.247Z,144.10
2022-10-09T18:08:57.816Z,143.33
2022-10-09T18:11:28.067Z,143.57
2022-10-09T18:13:56.149Z,143.47
2022-10-09T18:16:35.423Z,143.60
2022-10-09T18:19:07.748Z,144.00
2022-10-09T18:21:36.078Z,144.30
2022-10-09T18:24:05.686Z,143.77
2022-10-09T18:26:33.685Z,143.63
2022-10-09T18:29:02.014Z,143.20
2022-10-09T18:31:31.036Z,143.37
2022-10-09T18:33:59.698Z,143.67
2022-10-09T18:36:31.394Z,144.03
2022-10-09T18:39:02.118Z,143.00
2022-10-09T18:41:31.322Z,143.13
2022-10-09T18:44:00.991Z,143.47
2022-10-09T18:46:34.651Z,143.27
2022-10-09T18:49:03.321Z,143.63
2022-10-09T18:51:32.398Z,143.77
2022-10-09T18:54:03.632Z,143.40
2022-10-09T18:56:34.088Z,142.60
2022-10-09T18:59:04.643Z,143.17
2022-10-09T19:01:32.533Z,142.63
2022-10-09T19:04:00.471Z,142.93
2022-10-09T19:06:28.333Z,142.80
2022-10-09T19:09:00.419Z,142.93
2022-10-09T19:11:28.635Z,142.80
2022-10-09T19:14:00.027Z,142.97
2022-10-09T19:16:28.488Z,142.97
2022-10-09T19:18:56.455Z,143.00
2022-10-09T19:21:24.910Z,143.13
2022-10-09T19:23:53.867Z,143.07
2022-10-09T19:26:22.677Z,142.97
2022-10-09T19:28:50.572Z,142.47
2022-10-09T19:31:19.682Z,143.30
2022-10-09T19:33:47.574Z,143.60
2022-10-09T19:36:15.607Z,143.23
2022-10-09T19:38:44.094Z,143.30
2022-10-09T19:41:14.066Z,142.57
2022-10-09T19:43:42.106Z,143.03
2022-10-09T19:46:12.304Z,142.73
2022-10-09T19:48:41.810Z,142.23
2022-10-09T19:51:12.021Z,142.63
2022-10-09T19:53:39.850Z,142.00
2022-10-09T19:56:10.672Z,142.23
2022-10-09T19:58:41.567Z,142.40
2022-10-09T20:01:10.943Z,142.30
2022-10-09T20:03:39.210Z,142.20
2022-10-09T20:06:09.711Z,142.20
2022-10-09T20:08:38.457Z,142.53
2022-10-09T20:11:07.328Z,142.13
2022-10-09T20:13:36.738Z,142.10
2022-10-09T20:16:06.864Z,142.40
2022-10-09T20:18:35.307Z,141.67
2022-10-09T20:21:03.100Z,142.10
2022-10-09T20:23:32.231Z,142.00
2022-10-09T20:26:00.528Z,141.73
2022-10-09T20:28:28.394Z,142.20
2022-10-09T20:31:00.522Z,141.80
2022-10-09T20:33:28.518Z,141.67
2022-10-09T20:35:56.273Z,141.57
2022-10-09T20:38:25.920Z,141.70
2022-10-09T20:40:55.215Z,142.17
2022-10-09T20:43:22.977Z,141.43
2022-10-09T20:45:50.771Z,141.57
2022-10-09T20:48:18.570Z,141.47
2022-10-09T20:50:46.409Z,141.77
2022-10-09T20:53:14.186Z,141.83
2022-10-09T20:55:41.968Z,141.27
2022-10-09T20:58:11.079Z,141.83
2022-10-09T21:00:42.752Z,141.13
2022-10-09T21:03:12.547Z,141.60
2022-10-09T21:05:43.912Z,141.60
2022-10-09T21:08:11.694Z,141.70
2022-10-09T21:10:43.697Z,141.63
2022-10-09T21:13:13.180Z,141.10
2022-10-09T21:15:44.781Z,141.57
2022-10-09T21:18:12.956Z,141.03
2022-10-09T21:20:41.607Z,141.23
2022-10-09T21:23:10.365Z,141.50
2022-10-09T21:25:38.526Z,141.33
2022-10-09T21:28:06.803Z,140.90
2022-10-09T21:30:41.673Z,141.50
2022-10-09T21:33:10.244Z,141.00
2022-10-09T21:35:41.376Z,141.23
2022-10-09T21:38:13.254Z,141.43
2022-10-09T21:40:41.262Z,141.17
2022-10-09T21:43:10.417Z,140.83
2022-10-09T21:45:40.551Z,141.17
2022-10-09T21:48:08.761Z,140.67
2022-10-09T21:50:37.728Z,140.23
2022-10-09T21:53:05.592Z,140.80
2022-10-09T21:55:33.501Z,140.83
2022-10-09T21:58:01.355Z,141.50
2022-10-09T22:00:29.185Z,140.87
2022-10-09T22:02:58.414Z,140.90
2022-10-09T22:05:26.330Z,140.57
2022-10-09T22:07:54.101Z,140.73
2022-10-09T22:10:21.956Z,140.63
2022-10-09T22:12:50.076Z,140.83
2022-10-09T22:15:18.346Z,140.63
2022-10-09T22:17:46.101Z,140.43
2022-10-09T22:20:15.245Z,140.93
2022-10-09T22:22:42.991Z,140.53
2022-10-09T22:25:10.779Z,140.73
2022-10-09T22:27:38.548Z,140.17
2022-10-09T22:30:07.505Z,140.10
2022-10-09T22:32:35.307Z,140.97
2022-10-09T22:35:03.091Z,140.37
2022-10-09T22:37:32.230Z,139.80
2022-10-09T22:39:59.996Z,141.03
2022-10-09T22:42:27.782Z,140.40
2022-10-09T22:44:55.575Z,140.53
2022-10-09T22:47:23.330Z,140.47
2022-10-09T22:49:51.180Z,140.10
2022-10-09T22:52:18.976Z,140.30
2022-10-09T22:54:48.093Z,140.50
2022-10-09T22:57:15.892Z,140.30
2022-10-09T22:59:43.916Z,140.33
2022-10-09T23:02:12.023Z,140.20
2022-10-09T23:04:39.794Z,140.20
2022-10-09T23:07:07.551Z,140.20
2022-10-09T23:09:35.329Z,139.50
2022-10-09T23:12:04.703Z,139.50
2022-10-09T23:14:32.555Z,140.40
2022-10-09T23:17:00.307Z,139.33
2022-10-09T23:19:28.161Z,139.13
2022-10-09T23:21:55.926Z,140.10
2022-10-09T23:24:23.738Z,139.37
2022-10-09T23:26:52.499Z,139.67
2022-10-09T23:29:22.209Z,139.33
2022-10-09T23:31:53.470Z,139.47
2022-10-09T23:34:21.292Z,139.77
2022-10-09T23:36:49.034Z,139.27
2022-10-09T23:39:17.172Z,139.33
2022-10-09T23:41:44.929Z,139.40
2022-10-09T23:44:12.710Z,139.37
2022-10-09T23:46:41.853Z,139.37
2022-10-09T23:49:10.818Z,139.37
2022-10-09T23:51:38.631Z,139.40
2022-10-09T23:54:07.108Z,139.27
2022-10-09T23:56:38.102Z,138.63
2022-10-09T23:59:06.972Z,138.70
